Terminal Aerodrome Forecast
Issued by NWS Flagstaff, AZ

Home | Current Version | Previous Version | Text Only | Print | Product List | Glossary On
Versions: 1 2 3 4 5 6 7 8 9 10 11 12
849
FTUS45 KFGZ 192336
TAFFLG
TAF
KFLG 192336Z 2000/2024 23012G19KT P6SM SCT080 BKN110
     FM200130 22006KT P6SM FEW150 SCT200
     FM201700 22020G30KT P6SM SCT200=

USA.gov is the U.S. government's official web portal to all federal, state and local government web resources and services.